createdAt,value
2023-01-13T00:02:55.616Z,99595.56
2023-01-13T00:07:58.877Z,99597.16
2023-01-13T00:13:01.012Z,99592.88
2023-01-13T00:18:02.917Z,99591.06
2023-01-13T00:23:06.212Z,99597.22
2023-01-13T00:28:10.121Z,99596.34
2023-01-13T00:33:12.027Z,99587.72
2023-01-13T00:38:15.222Z,99575.63
2023-01-13T00:43:22.845Z,99568.69
2023-01-13T00:48:24.744Z,99559.91
2023-01-13T00:53:28.189Z,99554.69
2023-01-13T00:58:31.601Z,99562.59
2023-01-13T01:03:33.701Z,99556.44
2023-01-13T01:08:36.993Z,99533.88
2023-01-13T01:13:38.894Z,99532.09
2023-01-13T01:18:41.722Z,99539.97
2023-01-13T01:23:45.120Z,99542.53
2023-01-13T01:28:47.229Z,99553.00
2023-01-13T01:33:49.338Z,99548.63
2023-01-13T01:38:52.536Z,99549.59
2023-01-13T01:44:04.484Z,99552.16
2023-01-13T01:49:13.048Z,99552.13
2023-01-13T01:54:20.461Z,99560.06
2023-01-13T01:59:22.444Z,99552.16
2023-01-13T02:04:26.107Z,99547.88
2023-01-13T02:09:29.365Z,99554.09
2023-01-13T02:14:31.264Z,99538.56
2023-01-13T02:20:24.593Z,99537.69
2023-01-13T02:25:48.674Z,99543.78
2023-01-13T02:31:11.462Z,99526.38
2023-01-13T02:36:18.151Z,99531.56
2023-01-13T02:41:43.854Z,99535.16
2023-01-13T02:46:54.101Z,99537.00
2023-01-13T02:51:59.551Z,99539.78
2023-01-13T02:57:01.427Z,99538.19
2023-01-13T03:02:04.528Z,99539.97
2023-01-13T03:07:08.584Z,99528.75
2023-01-13T03:12:13.861Z,99537.44
2023-01-13T03:17:21.232Z,99554.91
2023-01-13T03:22:24.446Z,99560.19
2023-01-13T03:27:27.892Z,99556.69
2023-01-13T03:32:32.502Z,99568.91
2023-01-13T03:37:35.052Z,99587.31
2023-01-13T03:42:37.074Z,99578.59
2023-01-13T03:47:41.498Z,99562.09
2023-01-13T03:52:44.838Z,99567.38
2023-01-13T03:57:48.378Z,99573.38
2023-01-13T04:02:52.572Z,99583.91
2023-01-13T04:07:56.534Z,99588.16
2023-01-13T04:13:02.676Z,99596.06
2023-01-13T04:18:14.639Z,99579.59
2023-01-13T04:23:16.582Z,99580.59
2023-01-13T04:28:18.343Z,99586.78
2023-01-13T04:33:21.301Z,99597.19
2023-01-13T04:38:23.209Z,99594.72
2023-01-13T04:43:24.857Z,99587.81
2023-01-13T04:48:27.876Z,99591.47
2023-01-13T04:53:29.520Z,99603.59
2023-01-13T04:58:31.160Z,99599.19
2023-01-13T05:03:34.188Z,99605.25
2023-01-13T05:08:35.894Z,99603.53
2023-01-13T05:13:56.133Z,99612.41
2023-01-13T05:18:59.162Z,99618.53
2023-01-13T05:24:19.465Z,99617.69
2023-01-13T05:29:21.110Z,99620.31
2023-01-13T05:34:24.271Z,99609.91
2023-01-13T05:39:26.855Z,99608.06
2023-01-13T05:44:47.727Z,99601.59
2023-01-13T05:49:49.619Z,99606.22
2023-01-13T05:54:51.282Z,99614.16
2023-01-13T05:59:54.304Z,99614.19
2023-01-13T06:04:56.006Z,99619.34
2023-01-13T06:09:57.679Z,99615.84
2023-01-13T06:15:00.712Z,99602.91
2023-01-13T06:20:02.355Z,99588.19
2023-01-13T06:25:04.636Z,99588.31
2023-01-13T06:30:10.721Z,99585.72
2023-01-13T06:35:14.360Z,99584.88
2023-01-13T06:40:16.480Z,99595.34
2023-01-13T06:45:19.610Z,99591.00
2023-01-13T06:50:21.291Z,99591.88
2023-01-13T06:55:22.901Z,99590.00
2023-01-13T07:00:26.776Z,99598.63
2023-01-13T07:05:28.443Z,99593.41
2023-01-13T07:10:30.271Z,99601.06
2023-01-13T07:15:33.659Z,99601.84
2023-01-13T07:20:35.317Z,99597.38
2023-01-13T07:25:36.979Z,99588.66
2023-01-13T07:30:39.989Z,99592.03
2023-01-13T07:35:41.661Z,99585.22
2023-01-13T07:40:43.336Z,99596.63
2023-01-13T07:45:46.358Z,99592.34
2023-01-13T07:50:48.069Z,99594.06
2023-01-13T07:55:49.820Z,99595.78
2023-01-13T08:00:53.011Z,99616.69
2023-01-13T08:05:54.757Z,99626.22
2023-01-13T08:10:58.798Z,99634.88
2023-01-13T08:16:03.304Z,99619.13
2023-01-13T08:21:06.003Z,99621.72
2023-01-13T08:26:09.002Z,99623.47
2023-01-13T08:31:13.569Z,99656.44
2023-01-13T08:36:15.311Z,99643.31
2023-01-13T08:41:36.928Z,99659.75
2023-01-13T08:46:41.133Z,99653.69
2023-01-13T08:51:42.767Z,99661.50
2023-01-13T08:56:46.137Z,99658.00
2023-01-13T09:01:49.392Z,99648.38
2023-01-13T09:06:51.158Z,99654.53
2023-01-13T09:12:11.454Z,99638.94
2023-01-13T09:17:14.788Z,99637.06
2023-01-13T09:22:17.407Z,99660.97
2023-01-13T09:27:19.170Z,99645.19
2023-01-13T09:32:22.202Z,99651.91
2023-01-13T09:37:23.877Z,99644.22
2023-01-13T09:42:49.673Z,99652.56
2023-01-13T09:47:56.522Z,99660.81
2023-01-13T09:52:58.543Z,99655.38
2023-01-13T09:58:01.230Z,99646.38
2023-01-13T10:03:12.922Z,99635.44
2023-01-13T10:08:16.472Z,99648.16
2023-01-13T10:13:19.971Z,99646.31
2023-01-13T10:18:24.055Z,99654.06
2023-01-13T10:23:39.046Z,99639.53
2023-01-13T10:28:40.682Z,99658.16
2023-01-13T10:33:43.645Z,99649.41
2023-01-13T10:38:46.009Z,99651.03
2023-01-13T10:43:58.118Z,99642.94
2023-01-13T10:49:01.703Z,99643.16
2023-01-13T10:54:14.122Z,99632.88
2023-01-13T10:59:18.535Z,99643.66
2023-01-13T11:04:32.754Z,99656.75
2023-01-13T11:09:34.546Z,99659.38
2023-01-13T11:14:39.402Z,99666.31
2023-01-13T11:19:43.859Z,99661.88
2023-01-13T11:24:46.327Z,99655.63
2023-01-13T11:29:57.578Z,99662.56
2023-01-13T11:35:02.162Z,99669.66
2023-01-13T11:40:05.701Z,99653.97
2023-01-13T11:45:16.867Z,99665.44
2023-01-13T11:50:24.778Z,99655.09
2023-01-13T11:55:31.024Z,99664.75
2023-01-13T12:00:38.449Z,99662.28
2023-01-13T12:05:42.369Z,99653.59
2023-01-13T12:10:50.459Z,99665.66
2023-01-13T12:16:14.800Z,99665.63
2023-01-13T12:21:20.577Z,99672.41
2023-01-13T12:26:22.309Z,99668.84
2023-01-13T12:31:24.149Z,99666.44
2023-01-13T12:36:29.413Z,99657.75
2023-01-13T12:41:36.757Z,99669.19
2023-01-13T12:46:53.051Z,99659.69
2023-01-13T12:52:11.012Z,99660.53
2023-01-13T12:57:14.925Z,99670.94
2023-01-13T13:02:31.146Z,99664.84
2023-01-13T13:07:38.919Z,99660.41
2023-01-13T13:13:15.902Z,99674.22
2023-01-13T13:18:28.351Z,99666.56
2023-01-13T13:23:48.196Z,99669.22
2023-01-13T13:28:56.877Z,99685.63
2023-01-13T13:34:07.993Z,99673.56
2023-01-13T13:39:38.951Z,99676.22
2023-01-13T13:45:01.619Z,99680.50
2023-01-13T13:50:06.201Z,99680.59
2023-01-13T13:55:23.225Z,99706.66
2023-01-13T14:00:26.293Z,99713.78
2023-01-13T14:05:28.808Z,99733.81
2023-01-13T14:10:33.103Z,99747.75
2023-01-13T14:15:35.923Z,99762.59
2023-01-13T14:20:37.631Z,99764.41
2023-01-13T14:25:46.528Z,99775.69
2023-01-13T14:30:49.841Z,99781.78
2023-01-13T14:36:14.886Z,99771.41
2023-01-13T14:41:20.766Z,99761.88
2023-01-13T14:46:25.064Z,99772.38
2023-01-13T14:51:27.406Z,99775.84
2023-01-13T14:56:53.669Z,99786.28
2023-01-13T15:01:55.513Z,99787.13
2023-01-13T15:06:57.731Z,99785.38
2023-01-13T15:12:00.737Z,99794.94
2023-01-13T15:17:03.242Z,99807.97
2023-01-13T15:22:04.879Z,99805.38
2023-01-13T15:27:15.422Z,99821.84
2023-01-13T15:32:17.882Z,99825.38
2023-01-13T15:37:19.631Z,99826.22
2023-01-13T15:42:43.365Z,99841.00
2023-01-13T15:47:44.993Z,99843.56
2023-01-13T15:52:46.668Z,99850.50
2023-01-13T15:57:49.847Z,99864.41
2023-01-13T16:02:51.559Z,99870.50
2023-01-13T16:07:53.451Z,99872.22
2023-01-13T16:12:56.464Z,99876.53
2023-01-13T16:17:59.713Z,99883.50
2023-01-13T16:23:01.377Z,99880.88
2023-01-13T16:28:04.367Z,99895.63
2023-01-13T16:33:05.995Z,99890.44
2023-01-13T16:38:10.635Z,99907.78
2023-01-13T16:43:13.752Z,99899.09
2023-01-13T16:48:18.451Z,99916.50
2023-01-13T16:53:20.160Z,99906.94
2023-01-13T16:58:23.357Z,99908.69
2023-01-13T17:03:25.050Z,99919.13
2023-01-13T17:08:26.854Z,99925.19
2023-01-13T17:13:29.840Z,99929.53
2023-01-13T17:18:31.538Z,99945.19
2023-01-13T17:23:33.435Z,99953.84
2023-01-13T17:28:36.473Z,99953.84
2023-01-13T17:33:38.144Z,99962.53
2023-01-13T17:38:39.804Z,99958.19
2023-01-13T17:43:42.856Z,99979.03
2023-01-13T17:48:44.485Z,99985.97
2023-01-13T17:53:46.194Z,99983.38
2023-01-13T17:58:49.296Z,99987.69
2023-01-13T18:03:51.352Z,99987.69
2023-01-13T18:08:53.081Z,100010.28
2023-01-13T18:14:00.118Z,99996.38
2023-01-13T18:19:20.516Z,100005.91
2023-01-13T18:24:40.923Z,100010.25
2023-01-13T18:29:44.024Z,100030.19
2023-01-13T18:34:45.834Z,100046.66
2023-01-13T18:39:47.531Z,100032.81
2023-01-13T18:44:53.225Z,100048.44
2023-01-13T18:49:54.981Z,100051.06
2023-01-13T18:54:56.709Z,100045.84
2023-01-13T18:59:59.774Z,100071.88
2023-01-13T19:05:01.545Z,100080.53
2023-01-13T19:10:04.262Z,100088.34
2023-01-13T19:15:08.901Z,100090.94
2023-01-13T19:20:11.665Z,100102.25
2023-01-13T19:25:13.363Z,100094.41
2023-01-13T19:30:17.360Z,100115.22
2023-01-13T19:35:19.996Z,100103.06
2023-01-13T19:40:22.350Z,100097.84
2023-01-13T19:45:28.980Z,100127.34
2023-01-13T19:50:30.704Z,100133.44
2023-01-13T19:55:32.478Z,100146.44
2023-01-13T20:00:35.496Z,100152.47
2023-01-13T20:05:37.188Z,100153.31
2023-01-13T20:10:38.915Z,100158.59
2023-01-13T20:15:42.107Z,100169.88
2023-01-13T20:20:43.873Z,100174.19
2023-01-13T20:25:45.608Z,100182.00
2023-01-13T20:30:49.622Z,100202.75
2023-01-13T20:35:56.813Z,100214.88
2023-01-13T20:40:58.729Z,100215.78
2023-01-13T20:46:03.409Z,100224.44
2023-01-13T20:51:05.195Z,100226.19
2023-01-13T20:56:07.630Z,100240.84
2023-01-13T21:01:10.962Z,100241.63
2023-01-13T21:06:12.995Z,100256.28
2023-01-13T21:11:17.244Z,100282.25
2023-01-13T21:16:20.399Z,100261.38
2023-01-13T21:21:22.203Z,100277.75
2023-01-13T21:26:24.154Z,100266.34
2023-01-13T21:31:27.291Z,100275.75
2023-01-13T21:36:29.116Z,100283.38
2023-01-13T21:41:49.275Z,100292.78
2023-01-13T21:47:10.681Z,100303.03
2023-01-13T21:52:12.481Z,100310.75
2023-01-13T21:57:14.428Z,100315.94
2023-01-13T22:02:31.721Z,100329.09
2023-01-13T22:07:33.864Z,100328.22
2023-01-13T22:12:35.887Z,100329.16
2023-01-13T22:17:40.028Z,100337.03
2023-01-13T22:22:41.723Z,100334.50
2023-01-13T22:27:44.747Z,100341.47
2023-01-13T22:32:47.910Z,100346.72
2023-01-13T22:37:49.588Z,100353.78
2023-01-13T22:42:51.290Z,100359.88
2023-01-13T22:47:54.314Z,100374.66
2023-01-13T22:52:56.023Z,100368.59
2023-01-13T22:57:58.147Z,100373.06
2023-01-13T23:03:01.171Z,100380.94
2023-01-13T23:08:02.926Z,100387.00
2023-01-13T23:13:04.602Z,100378.34
2023-01-13T23:18:07.710Z,100385.34
2023-01-13T23:23:09.400Z,100395.81
2023-01-13T23:28:11.135Z,100395.81
2023-01-13T23:33:14.382Z,100411.56
2023-01-13T23:38:16.034Z,100397.56
2023-01-13T23:43:17.733Z,100402.09
2023-01-13T23:48:20.794Z,100409.91
2023-01-13T23:53:22.470Z,100410.84
2023-01-13T23:58:24.223Z,100432.53
